createdAt,value
2022-11-26T00:00:06.116Z,24.65
2022-11-26T00:05:15.901Z,16.98
2022-11-26T00:10:22.606Z,32.50
2022-11-26T00:15:28.012Z,30.38
2022-11-26T00:20:35.552Z,20.10
2022-11-26T00:25:42.367Z,21.33
2022-11-26T00:30:47.108Z,19.10
2022-11-26T00:35:57.076Z,17.73
2022-11-26T00:41:01.993Z,22.33
2022-11-26T00:46:06.790Z,22.33
2022-11-26T00:51:16.554Z,32.65
2022-11-26T00:56:22.438Z,32.88
2022-11-26T01:01:29.039Z,42.42
2022-11-26T01:06:37.448Z,41.90
2022-11-26T01:11:42.157Z,26.75
2022-11-26T01:16:47.608Z,21.70
2022-11-26T01:21:54.998Z,21.42
2022-11-26T01:26:59.671Z,18.27
2022-11-26T01:32:04.670Z,20.75
2022-11-26T01:37:17.024Z,19.80
2022-11-26T01:42:27.637Z,18.98
2022-11-26T01:47:33.506Z,19.20
2022-11-26T01:52:40.936Z,21.98
2022-11-26T01:57:45.829Z,20.92
2022-11-26T02:02:50.515Z,20.92
2022-11-26T02:07:58.405Z,21.67
2022-11-26T02:13:03.180Z,21.45
2022-11-26T02:18:09.563Z,18.05
2022-11-26T02:23:30.969Z,19.90
2022-11-26T02:28:44.592Z,20.63
2022-11-26T02:33:55.367Z,18.77
2022-11-26T02:39:00.091Z,77.93
2022-11-26T02:44:04.825Z,31.05
2022-11-26T02:49:12.745Z,22.38
2022-11-26T02:54:18.136Z,22.27
2022-11-26T02:59:23.277Z,26.05
2022-11-26T03:04:32.367Z,27.25
2022-11-26T03:09:44.640Z,23.17
2022-11-26T03:14:49.540Z,23.60
2022-11-26T03:19:56.984Z,27.35
2022-11-26T03:25:01.679Z,20.30
2022-11-26T03:30:07.194Z,16.50
2022-11-26T03:35:14.809Z,19.60
2022-11-26T03:40:19.770Z,19.13
2022-11-26T03:45:24.498Z,15.02
2022-11-26T03:50:31.898Z,18.38
2022-11-26T03:55:36.671Z,12.43
2022-11-26T04:00:41.390Z,18.10
2022-11-26T04:05:48.727Z,19.05
2022-11-26T04:10:53.456Z,15.50
2022-11-26T04:15:58.298Z,17.23
2022-11-26T04:21:05.663Z,13.20
2022-11-26T04:26:10.391Z,13.02
2022-11-26T04:31:15.360Z,14.25
2022-11-26T04:36:22.906Z,17.48
2022-11-26T04:41:27.706Z,20.75
2022-11-26T04:46:32.429Z,18.42
2022-11-26T04:51:39.755Z,20.88
2022-11-26T04:56:44.456Z,22.67
2022-11-26T05:01:49.159Z,30.00
2022-11-26T05:06:56.516Z,23.05
2022-11-26T05:12:01.238Z,23.02
2022-11-26T05:17:05.965Z,18.15
2022-11-26T05:22:13.264Z,21.77
2022-11-26T05:27:18.008Z,20.85
2022-11-26T05:32:22.763Z,20.60
2022-11-26T05:37:30.108Z,27.70
2022-11-26T05:42:34.891Z,28.50
2022-11-26T05:47:39.672Z,28.88
2022-11-26T05:52:47.047Z,22.48
2022-11-26T05:57:51.842Z,13.88
2022-11-26T06:02:56.651Z,22.17
2022-11-26T06:08:04.125Z,15.43
2022-11-26T06:13:08.916Z,24.27
2022-11-26T06:18:13.841Z,25.23
2022-11-26T06:23:22.416Z,16.20
2022-11-26T06:28:27.403Z,23.50
2022-11-26T06:33:32.191Z,29.38
2022-11-26T06:38:39.588Z,17.15
2022-11-26T06:43:44.545Z,22.08
2022-11-26T06:48:49.301Z,24.00
2022-11-26T07:42:54.573Z,38.20
2022-11-26T08:10:41.572Z,33.83
2022-11-26T08:15:46.374Z,35.90
2022-11-26T08:20:57.459Z,66.90
2022-11-26T08:26:30.706Z,41.63
2022-11-26T08:31:47.273Z,39.15
2022-11-26T08:36:54.670Z,33.55
2022-11-26T08:42:02.808Z,20.00
2022-11-26T08:47:07.678Z,29.83
2022-11-26T08:52:12.551Z,14.70
2022-11-26T08:57:20.086Z,17.88
2022-11-26T09:02:24.936Z,22.02
2022-11-26T09:07:31.004Z,11.27
2022-11-26T09:12:38.571Z,13.32
2022-11-26T09:17:43.494Z,13.88
2022-11-26T09:22:48.626Z,16.10
2022-11-26T09:27:56.729Z,23.17
2022-11-26T09:33:01.581Z,27.52
2022-11-26T09:38:06.391Z,28.05
2022-11-26T09:43:18.617Z,23.75
2022-11-26T10:16:13.472Z,45.65
2022-11-26T10:21:59.957Z,52.72
2022-11-26T10:27:27.052Z,39.60
2022-11-26T10:32:41.720Z,47.15
2022-11-26T10:37:46.792Z,141.10
2022-11-26T10:43:13.893Z,46.40
2022-11-26T10:48:23.426Z,37.33
2022-11-26T10:53:28.912Z,31.60
2022-11-26T10:58:35.558Z,34.80
2022-11-26T11:09:26.046Z,41.88
2022-11-26T11:14:31.286Z,36.30
2022-11-26T11:19:39.549Z,30.50
2022-11-26T11:24:48.630Z,34.03
2022-11-26T11:29:53.884Z,42.33
2022-11-26T11:35:14.516Z,33.67
2022-11-26T11:40:25.441Z,48.25
2022-11-26T11:45:36.443Z,51.10
2022-11-26T12:45:26.340Z,108.50
2022-11-26T12:56:29.100Z,65.22
2022-11-26T13:01:36.735Z,62.58
2022-11-26T13:06:53.686Z,50.63
2022-11-26T13:12:03.940Z,47.28
2022-11-26T13:17:13.239Z,45.63
2022-11-26T13:22:31.632Z,41.63
2022-11-26T13:27:43.400Z,47.78
2022-11-26T13:33:10.389Z,37.25
2022-11-26T13:59:52.370Z,45.22
2022-11-26T14:04:57.244Z,39.20
2022-11-26T14:10:03.105Z,40.88
2022-11-26T14:15:26.509Z,40.10
2022-11-26T14:20:33.993Z,40.42
2022-11-26T14:25:40.920Z,35.63
2022-11-26T14:30:45.608Z,36.50
2022-11-26T14:35:59.573Z,39.75
2022-11-26T14:41:04.652Z,56.15
2022-11-26T14:46:14.393Z,58.17
2022-11-26T14:51:25.868Z,70.80
2022-11-26T14:56:32.234Z,69.03
2022-11-26T15:01:37.179Z,77.18
2022-11-26T15:06:47.489Z,86.82
2022-11-26T16:06:32.247Z,61.65
2022-11-26T16:11:37.426Z,56.83
2022-11-26T16:16:42.882Z,55.38
2022-11-26T16:21:54.207Z,62.88
2022-11-26T16:27:01.125Z,55.55
2022-11-26T16:32:06.353Z,68.22
2022-11-26T16:37:22.131Z,97.20
2022-11-26T16:42:27.434Z,153.35
2022-11-26T16:47:33.759Z,171.25
2022-11-26T16:58:29.679Z,61.35
2022-11-26T17:03:36.025Z,70.40
2022-11-26T17:08:45.052Z,169.90
2022-11-26T17:13:55.638Z,102.22
2022-11-26T18:07:23.001Z,247.38
2022-11-26T18:17:51.463Z,114.72
2022-11-26T18:22:57.423Z,168.25
2022-11-26T18:28:02.364Z,132.73
2022-11-26T18:33:09.933Z,101.93
2022-11-26T18:38:14.648Z,95.35
2022-11-26T18:43:19.289Z,99.03
2022-11-26T18:48:26.643Z,105.97
2022-11-26T18:53:32.015Z,126.38
2022-11-26T18:58:37.411Z,113.95
2022-11-26T19:03:44.779Z,107.50
2022-11-26T19:08:50.006Z,101.95
2022-11-26T19:13:54.971Z,91.97
2022-11-26T19:19:03.850Z,95.75
2022-11-26T19:24:09.955Z,77.47
2022-11-26T19:29:15.530Z,82.75
2022-11-26T19:34:22.846Z,77.85
2022-11-26T19:39:28.085Z,73.85
2022-11-26T19:44:32.812Z,69.38
2022-11-26T19:49:42.163Z,70.47
2022-11-26T19:54:46.867Z,75.32
2022-11-26T19:59:51.539Z,75.15
2022-11-26T20:04:59.307Z,93.22
2022-11-26T20:10:03.983Z,94.50
2022-11-26T20:15:10.435Z,100.32
2022-11-26T20:20:18.540Z,108.15
2022-11-26T20:25:23.767Z,95.30
2022-11-26T20:30:28.547Z,98.28
2022-11-26T20:35:35.901Z,74.65
2022-11-26T20:40:41.819Z,87.82
2022-11-26T20:45:47.232Z,82.90
2022-11-26T20:50:55.121Z,72.40
2022-11-26T20:56:00.100Z,76.72
2022-11-26T21:01:05.197Z,76.95
2022-11-26T21:06:12.701Z,79.82
2022-11-26T21:11:18.605Z,85.07
2022-11-26T21:16:23.507Z,80.05
2022-11-26T21:21:31.541Z,86.07
2022-11-26T21:26:37.999Z,76.10
2022-11-26T21:31:42.749Z,83.88
2022-11-26T21:36:50.250Z,106.13
2022-11-26T21:41:54.909Z,109.35
2022-11-26T21:46:59.791Z,95.55
2022-11-26T21:52:07.235Z,84.50
2022-11-26T21:57:12.004Z,99.72
2022-11-26T22:02:16.873Z,99.70
2022-11-26T22:07:24.211Z,97.25
2022-11-26T22:12:29.520Z,116.80
2022-11-26T22:17:34.183Z,189.63
2022-11-26T22:22:41.483Z,119.60
2022-11-26T22:27:46.223Z,108.10
2022-11-26T22:32:50.846Z,117.60
2022-11-26T22:37:58.526Z,111.30
2022-11-26T22:43:04.369Z,121.95
2022-11-26T22:48:10.905Z,106.85
2022-11-26T22:53:19.079Z,118.03
2022-11-26T22:58:23.861Z,110.65
2022-11-26T23:03:29.385Z,92.35
2022-11-26T23:08:36.964Z,92.20
2022-11-26T23:13:43.079Z,93.40
2022-11-26T23:18:47.890Z,90.45
2022-11-26T23:23:55.387Z,104.97
2022-11-26T23:29:00.859Z,130.32
2022-11-26T23:34:06.003Z,141.35
2022-11-26T23:39:14.249Z,128.55
2022-11-26T23:44:18.968Z,100.30
2022-11-26T23:49:23.637Z,97.28
2022-11-26T23:54:30.974Z,136.68
2022-11-26T23:59:38.937Z,98.78
